createdAt,value
2019-01-24T00:00:31.469Z,1005.09
2019-01-24T00:01:31.455Z,1005.08
2019-01-24T00:02:31.441Z,1005.08
2019-01-24T00:03:31.423Z,1005.10
2019-01-24T00:04:31.408Z,1005.12
2019-01-24T00:05:31.396Z,1005.12
2019-01-24T00:06:31.379Z,1005.11
2019-01-24T00:07:31.366Z,1005.12
2019-01-24T00:08:31.352Z,1005.16
2019-01-24T00:09:31.338Z,1005.14
2019-01-24T00:10:31.324Z,1005.19
2019-01-24T00:11:31.308Z,1005.17
2019-01-24T00:12:31.293Z,1005.20
2019-01-24T00:13:31.314Z,1005.17
2019-01-24T00:14:31.266Z,1005.19
2019-01-24T00:15:31.249Z,1005.18
2019-01-24T00:16:31.239Z,1005.21
2019-01-24T00:17:31.223Z,1005.23
2019-01-24T00:18:31.210Z,1005.23
2019-01-24T00:19:31.197Z,1005.23
2019-01-24T00:20:31.183Z,1005.21
2019-01-24T00:21:31.163Z,1005.20
2019-01-24T00:22:31.150Z,1005.19
2019-01-24T00:23:31.134Z,1005.21
2019-01-24T00:24:31.125Z,1005.23
2019-01-24T00:25:31.115Z,1005.20
2019-01-24T00:26:31.091Z,1005.25
2019-01-24T00:27:31.077Z,1005.25
2019-01-24T00:28:31.062Z,1005.25
2019-01-24T00:29:31.047Z,1005.23
2019-01-24T00:30:31.031Z,1005.30
2019-01-24T00:31:31.017Z,1005.26
2019-01-24T00:32:31.004Z,1005.27
2019-01-24T00:33:30.991Z,1005.26
2019-01-24T00:34:30.977Z,1005.26
2019-01-24T00:35:30.959Z,1005.29
2019-01-24T00:36:30.950Z,1005.29
2019-01-24T00:37:30.930Z,1005.30
2019-01-24T00:38:30.917Z,1005.31
2019-01-24T00:39:30.905Z,1005.37
2019-01-24T00:40:30.888Z,1005.33
2019-01-24T00:41:30.876Z,1005.40
2019-01-24T00:42:30.858Z,1005.38
2019-01-24T00:43:30.847Z,1005.41
2019-01-24T00:44:30.835Z,1005.46
2019-01-24T00:45:30.814Z,1005.41
2019-01-24T00:46:30.798Z,1005.44
2019-01-24T00:47:30.784Z,1005.45
2019-01-24T00:48:30.770Z,1005.42
2019-01-24T00:49:30.757Z,1005.41
2019-01-24T00:50:30.741Z,1005.43
2019-01-24T00:51:30.726Z,1005.42
2019-01-24T00:52:30.712Z,1005.40
2019-01-24T00:53:30.698Z,1005.44
2019-01-24T00:54:30.685Z,1005.46
2019-01-24T00:55:30.668Z,1005.43
2019-01-24T00:56:30.655Z,1005.42
2019-01-24T00:57:30.641Z,1005.44
2019-01-24T00:58:30.626Z,1005.38
2019-01-24T00:59:30.614Z,1005.44
2019-01-24T01:00:30.598Z,1005.40
2019-01-24T01:01:30.583Z,1005.42
2019-01-24T01:02:30.569Z,1005.50
2019-01-24T01:03:30.554Z,1005.46
2019-01-24T01:04:30.540Z,1005.46
2019-01-24T01:05:30.565Z,1005.48
2019-01-24T01:06:30.510Z,1005.52
2019-01-24T01:07:30.497Z,1005.52
2019-01-24T01:08:30.484Z,1005.55
2019-01-24T01:09:30.468Z,1005.54
2019-01-24T01:10:30.454Z,1005.58
2019-01-24T01:11:30.440Z,1005.58
2019-01-24T01:12:30.423Z,1005.62
2019-01-24T01:13:30.411Z,1005.59
2019-01-24T01:14:30.396Z,1005.66
2019-01-24T01:15:30.381Z,1005.70
2019-01-24T01:16:30.367Z,1005.63
2019-01-24T01:17:30.355Z,1005.70
2019-01-24T01:18:30.336Z,1005.67
2019-01-24T01:19:30.322Z,1005.68
2019-01-24T01:20:30.312Z,1005.67
2019-01-24T01:21:30.310Z,1005.71
2019-01-24T01:22:30.282Z,1005.70
2019-01-24T01:23:30.265Z,1005.72
2019-01-24T01:24:30.252Z,1005.71
2019-01-24T01:25:30.238Z,1005.75
2019-01-24T01:26:30.224Z,1005.71
2019-01-24T01:27:30.207Z,1005.74
2019-01-24T01:28:30.194Z,1005.76
2019-01-24T01:29:30.180Z,1005.73
2019-01-24T01:30:30.169Z,1005.74
2019-01-24T01:31:30.153Z,1005.76
2019-01-24T01:32:30.136Z,1005.78
2019-01-24T01:33:30.122Z,1005.72
2019-01-24T01:34:36.142Z,1005.80
2019-01-24T01:35:30.096Z,1005.81
2019-01-24T01:36:30.083Z,1005.80
2019-01-24T01:37:30.067Z,1005.83
2019-01-24T01:38:30.065Z,1005.83
2019-01-24T01:39:30.035Z,1005.83
2019-01-24T01:40:30.024Z,1005.87
2019-01-24T01:41:30.010Z,1005.84
2019-01-24T01:42:29.993Z,1005.83
2019-01-24T01:43:29.977Z,1005.87
2019-01-24T01:44:29.966Z,1005.89
2019-01-24T01:45:29.951Z,1005.87
2019-01-24T01:46:29.938Z,1005.85
2019-01-24T01:47:29.924Z,1005.85
2019-01-24T01:48:29.906Z,1005.81
2019-01-24T01:49:29.892Z,1005.82
2019-01-24T01:50:29.877Z,1005.79
2019-01-24T01:51:29.867Z,1005.81
2019-01-24T01:52:29.850Z,1005.80
2019-01-24T01:53:29.838Z,1005.81
2019-01-24T01:54:29.820Z,1005.83
2019-01-24T01:55:29.811Z,1005.78
2019-01-24T01:56:29.793Z,1005.84
2019-01-24T01:57:29.779Z,1005.80
2019-01-24T01:58:29.766Z,1005.83
2019-01-24T01:59:29.752Z,1005.83
2019-01-24T02:00:29.736Z,1005.85
2019-01-24T02:01:29.721Z,1005.83
2019-01-24T02:02:29.707Z,1005.83
2019-01-24T02:03:29.690Z,1005.85
2019-01-24T02:04:29.672Z,1005.84
2019-01-24T02:05:29.672Z,1005.88
2019-01-24T02:06:29.649Z,1005.86
2019-01-24T02:07:29.635Z,1005.90
2019-01-24T02:08:29.622Z,1005.88
2019-01-24T02:09:29.609Z,1005.86
2019-01-24T02:10:29.591Z,1005.84
2019-01-24T02:11:29.578Z,1005.86
2019-01-24T02:12:29.561Z,1005.80
2019-01-24T02:13:29.550Z,1005.87
2019-01-24T02:14:29.536Z,1005.85
2019-01-24T02:15:29.521Z,1005.86
2019-01-24T02:16:29.506Z,1005.83
2019-01-24T02:17:29.492Z,1005.81
2019-01-24T02:18:29.480Z,1005.84
2019-01-24T02:19:29.466Z,1005.83
2019-01-24T02:20:29.450Z,1005.81
2019-01-24T02:21:29.435Z,1005.84
2019-01-24T02:22:29.420Z,1005.87
2019-01-24T02:23:29.408Z,1005.78
2019-01-24T02:24:29.393Z,1005.73
2019-01-24T02:25:29.383Z,1005.80
2019-01-24T02:26:29.368Z,1005.81
2019-01-24T02:27:29.348Z,1005.79
2019-01-24T02:28:29.333Z,1005.79
2019-01-24T02:29:29.323Z,1005.82
2019-01-24T02:30:29.307Z,1005.82
2019-01-24T02:31:29.294Z,1005.84
2019-01-24T02:32:29.279Z,1005.86
2019-01-24T02:33:29.265Z,1005.88
2019-01-24T02:34:29.249Z,1005.85
2019-01-24T02:35:29.234Z,1005.84
2019-01-24T02:36:29.220Z,1005.85
2019-01-24T02:37:29.207Z,1005.82
2019-01-24T02:38:29.191Z,1005.86
2019-01-24T02:39:29.178Z,1005.88
2019-01-24T02:40:29.165Z,1005.86
2019-01-24T02:41:29.150Z,1005.84
2019-01-24T02:42:29.133Z,1005.86
2019-01-24T02:43:29.120Z,1005.86
2019-01-24T02:44:29.104Z,1005.86
2019-01-24T02:45:29.091Z,1005.92
2019-01-24T02:46:29.077Z,1005.89
2019-01-24T02:47:29.063Z,1005.92
2019-01-24T02:48:29.049Z,1005.95
2019-01-24T02:49:29.039Z,1005.96
2019-01-24T02:50:29.012Z,1005.97
2019-01-24T02:51:29.008Z,1005.99
2019-01-24T02:52:28.989Z,1005.96
2019-01-24T02:53:28.977Z,1005.99
2019-01-24T02:54:28.961Z,1006.00
2019-01-24T02:55:28.951Z,1005.93
2019-01-24T02:56:28.933Z,1005.99
2019-01-24T02:57:28.923Z,1006.00
2019-01-24T02:58:28.912Z,1006.05
2019-01-24T02:59:28.890Z,1006.02
2019-01-24T03:00:28.877Z,1006.01
2019-01-24T03:01:28.861Z,1006.05
2019-01-24T03:02:28.848Z,1006.01
2019-01-24T03:03:28.831Z,1006.05
2019-01-24T03:04:28.818Z,1006.03
2019-01-24T03:05:28.804Z,1006.00
2019-01-24T03:06:28.789Z,1005.98
2019-01-24T03:07:28.775Z,1005.97
2019-01-24T03:08:28.760Z,1005.96
2019-01-24T03:09:28.745Z,1005.97
2019-01-24T03:10:28.730Z,1006.01
2019-01-24T03:11:28.716Z,1005.93
2019-01-24T03:12:28.703Z,1005.96
2019-01-24T03:13:28.694Z,1005.97
2019-01-24T03:14:28.672Z,1006.01
2019-01-24T03:15:28.658Z,1005.97
2019-01-24T03:16:28.646Z,1005.96
2019-01-24T03:17:28.635Z,1005.93
2019-01-24T03:18:28.618Z,1005.93
2019-01-24T03:19:28.599Z,1005.92
2019-01-24T03:20:28.586Z,1005.98
2019-01-24T03:21:28.576Z,1005.96
2019-01-24T03:22:28.558Z,1005.94
2019-01-24T03:23:28.541Z,1005.96
2019-01-24T03:24:28.533Z,1005.96
2019-01-24T03:25:28.512Z,1006.00
2019-01-24T03:26:28.499Z,1006.02
2019-01-24T03:27:28.483Z,1005.99
2019-01-24T03:28:28.470Z,1005.98
2019-01-24T03:29:28.456Z,1005.97
2019-01-24T03:30:28.456Z,1005.97
2019-01-24T03:31:28.432Z,1005.97
2019-01-24T03:32:28.419Z,1005.97
2019-01-24T03:33:28.398Z,1005.97
2019-01-24T03:34:28.385Z,1005.99
2019-01-24T03:35:28.379Z,1005.96
2019-01-24T03:36:28.358Z,1005.99
2019-01-24T03:37:28.342Z,1005.99
2019-01-24T03:38:28.326Z,1005.98
2019-01-24T03:39:28.309Z,1005.99
2019-01-24T03:40:28.299Z,1005.98
2019-01-24T03:41:28.283Z,1006.04
2019-01-24T03:42:28.266Z,1006.02
2019-01-24T03:43:28.254Z,1006.01
2019-01-24T03:44:28.241Z,1006.05
2019-01-24T03:45:28.224Z,1006.04
2019-01-24T03:46:28.212Z,1006.07
2019-01-24T03:47:28.198Z,1006.09
2019-01-24T03:48:28.182Z,1006.07
2019-01-24T03:49:28.165Z,1006.07
2019-01-24T03:50:28.156Z,1006.04
2019-01-24T03:51:28.135Z,1006.05
2019-01-24T03:52:28.124Z,1006.05
2019-01-24T03:53:28.113Z,1006.10
2019-01-24T03:54:28.096Z,1006.09
2019-01-24T03:55:28.084Z,1006.14
2019-01-24T03:56:28.067Z,1006.10
2019-01-24T03:57:28.054Z,1006.14
2019-01-24T03:58:28.069Z,1006.16
2019-01-24T03:59:28.023Z,1006.12
2019-01-24T04:00:28.013Z,1006.13
2019-01-24T04:01:27.994Z,1006.15
2019-01-24T04:02:27.980Z,1006.15
2019-01-24T04:03:27.967Z,1006.16
2019-01-24T04:04:27.951Z,1006.17
2019-01-24T04:05:27.941Z,1006.16
2019-01-24T04:06:27.922Z,1006.24
2019-01-24T04:07:27.907Z,1006.25
2019-01-24T04:08:27.898Z,1006.22
2019-01-24T04:09:27.905Z,1006.27
2019-01-24T04:10:27.872Z,1006.23
2019-01-24T04:11:27.849Z,1006.29
2019-01-24T04:12:27.839Z,1006.30
2019-01-24T04:13:27.823Z,1006.27
2019-01-24T04:14:27.809Z,1006.26
2019-01-24T04:15:27.799Z,1006.26
2019-01-24T04:16:27.779Z,1006.31
2019-01-24T04:17:27.764Z,1006.28
2019-01-24T04:18:27.751Z,1006.29
2019-01-24T04:19:27.740Z,1006.29
2019-01-24T04:20:27.723Z,1006.32
2019-01-24T04:21:27.710Z,1006.32
2019-01-24T04:22:27.692Z,1006.35
2019-01-24T04:23:27.677Z,1006.35
2019-01-24T04:24:27.666Z,1006.34
2019-01-24T04:25:27.653Z,1006.34
2019-01-24T04:26:27.634Z,1006.29
2019-01-24T04:27:27.618Z,1006.30
2019-01-24T04:28:27.608Z,1006.36
2019-01-24T04:29:27.596Z,1006.37
2019-01-24T04:30:27.579Z,1006.34
2019-01-24T04:31:27.561Z,1006.36
2019-01-24T04:32:27.550Z,1006.32
2019-01-24T04:33:27.534Z,1006.33
2019-01-24T04:34:27.528Z,1006.36
2019-01-24T04:35:27.503Z,1006.31
2019-01-24T04:36:27.490Z,1006.36
2019-01-24T04:37:27.477Z,1006.30
2019-01-24T04:38:27.464Z,1006.32
2019-01-24T04:39:27.444Z,1006.31
2019-01-24T04:40:27.431Z,1006.29
2019-01-24T04:41:27.419Z,1006.25
2019-01-24T04:42:27.402Z,1006.30
2019-01-24T04:43:27.388Z,1006.31
2019-01-24T04:44:27.374Z,1006.32
2019-01-24T04:45:27.389Z,1006.29
2019-01-24T04:46:27.347Z,1006.31
2019-01-24T04:47:27.332Z,1006.28
2019-01-24T04:48:27.312Z,1006.29
2019-01-24T04:49:27.302Z,1006.28
2019-01-24T04:50:27.285Z,1006.28
2019-01-24T04:51:27.274Z,1006.30
2019-01-24T04:52:27.259Z,1006.33
2019-01-24T04:53:27.243Z,1006.31
2019-01-24T04:54:27.229Z,1006.31
2019-01-24T04:55:27.207Z,1006.34
2019-01-24T04:56:27.198Z,1006.31
2019-01-24T04:57:27.190Z,1006.36
2019-01-24T04:58:27.169Z,1006.38
2019-01-24T04:59:27.162Z,1006.38
2019-01-24T05:00:27.149Z,1006.40
2019-01-24T05:01:27.126Z,1006.39
2019-01-24T05:02:27.114Z,1006.47
2019-01-24T05:03:27.096Z,1006.49
2019-01-24T05:04:27.085Z,1006.50
2019-01-24T05:05:28.081Z,1006.53
2019-01-24T05:06:27.060Z,1006.56
2019-01-24T05:07:27.045Z,1006.55
2019-01-24T05:08:27.030Z,1006.59
2019-01-24T05:09:27.023Z,1006.59
2019-01-24T05:10:27.004Z,1006.62
2019-01-24T05:11:26.984Z,1006.55
2019-01-24T05:12:26.977Z,1006.59
2019-01-24T05:13:26.956Z,1006.56
2019-01-24T05:14:26.940Z,1006.57
2019-01-24T05:15:26.931Z,1006.64
2019-01-24T05:16:26.933Z,1006.61
2019-01-24T05:17:26.895Z,1006.57
2019-01-24T05:18:26.879Z,1006.61
2019-01-24T05:19:26.876Z,1006.58
2019-01-24T05:20:26.852Z,1006.66
2019-01-24T05:21:26.837Z,1006.64
2019-01-24T05:22:26.829Z,1006.66
2019-01-24T05:23:26.805Z,1006.71
2019-01-24T05:24:26.792Z,1006.72
2019-01-24T05:25:26.782Z,1006.76
2019-01-24T05:26:26.764Z,1006.71
2019-01-24T05:27:26.752Z,1006.76
2019-01-24T05:28:26.738Z,1006.72
2019-01-24T05:29:26.722Z,1006.77
2019-01-24T05:30:26.705Z,1006.72
2019-01-24T05:31:26.694Z,1006.74
2019-01-24T05:32:26.678Z,1006.74
2019-01-24T05:33:26.675Z,1006.67
2019-01-24T05:34:26.652Z,1006.76
2019-01-24T05:35:26.637Z,1006.74
2019-01-24T05:36:26.621Z,1006.74
2019-01-24T05:37:26.617Z,1006.73
2019-01-24T05:38:26.589Z,1006.74
2019-01-24T05:39:26.577Z,1006.73
2019-01-24T05:40:26.566Z,1006.75
2019-01-24T05:41:26.545Z,1006.75
2019-01-24T05:42:26.531Z,1006.79
2019-01-24T05:43:26.519Z,1006.79
2019-01-24T05:44:26.516Z,1006.82
2019-01-24T05:45:26.487Z,1006.84
2019-01-24T05:46:26.475Z,1006.84
2019-01-24T05:47:26.459Z,1006.79
2019-01-24T05:48:26.447Z,1006.82
2019-01-24T05:49:26.436Z,1006.79
2019-01-24T05:50:26.416Z,1006.81
2019-01-24T05:51:26.403Z,1006.80
2019-01-24T05:52:26.386Z,1006.84
2019-01-24T05:53:26.373Z,1006.80
2019-01-24T05:54:26.363Z,1006.85
2019-01-24T05:55:26.343Z,1006.84
2019-01-24T05:56:26.328Z,1006.79
2019-01-24T05:57:26.314Z,1006.84
2019-01-24T05:58:26.299Z,1006.83
2019-01-24T05:59:26.284Z,1006.88
2019-01-24T06:00:26.269Z,1006.90
2019-01-24T06:01:26.257Z,1006.90
2019-01-24T06:02:26.241Z,1006.91
2019-01-24T06:03:26.225Z,1006.88
2019-01-24T06:04:26.213Z,1006.88
2019-01-24T06:05:26.198Z,1006.92
2019-01-24T06:06:26.182Z,1006.94
2019-01-24T06:07:26.165Z,1006.92
2019-01-24T06:08:26.153Z,1006.98
2019-01-24T06:09:26.135Z,1007.00
2019-01-24T06:10:26.119Z,1007.06
2019-01-24T06:11:26.107Z,1007.04
2019-01-24T06:12:26.090Z,1007.03
2019-01-24T06:13:26.080Z,1007.04
2019-01-24T06:14:26.061Z,1007.11
2019-01-24T06:15:26.050Z,1007.12
2019-01-24T06:16:26.031Z,1007.09
2019-01-24T06:17:26.020Z,1007.00
2019-01-24T06:18:26.008Z,1007.13
2019-01-24T06:19:25.988Z,1007.10
2019-01-24T06:20:25.972Z,1007.08
2019-01-24T06:21:25.956Z,1007.07
2019-01-24T06:22:25.946Z,1007.09
2019-01-24T06:23:25.927Z,1007.12
2019-01-24T06:24:25.916Z,1007.11
2019-01-24T06:25:25.897Z,1007.13
2019-01-24T06:26:25.884Z,1007.13
2019-01-24T06:27:25.866Z,1007.18
2019-01-24T06:28:25.851Z,1007.17
2019-01-24T06:29:25.843Z,1007.21
2019-01-24T06:30:25.821Z,1007.22
2019-01-24T06:31:25.807Z,1007.22
2019-01-24T06:32:25.792Z,1007.21
2019-01-24T06:33:25.778Z,1007.27
2019-01-24T06:34:25.765Z,1007.23
2019-01-24T06:35:25.749Z,1007.28
2019-01-24T06:36:25.731Z,1007.25
2019-01-24T06:37:25.720Z,1007.23
2019-01-24T06:38:25.705Z,1007.25
2019-01-24T06:39:25.690Z,1007.35
2019-01-24T06:40:25.671Z,1007.29
2019-01-24T06:41:25.659Z,1007.33
2019-01-24T06:42:25.647Z,1007.32
2019-01-24T06:43:25.628Z,1007.34
2019-01-24T06:44:25.611Z,1007.38
2019-01-24T06:45:25.598Z,1007.38
2019-01-24T06:46:25.582Z,1007.38
2019-01-24T06:47:25.570Z,1007.40
2019-01-24T06:48:25.552Z,1007.43
2019-01-24T06:49:25.543Z,1007.47
2019-01-24T06:50:25.526Z,1007.42
2019-01-24T06:51:25.508Z,1007.47
2019-01-24T06:52:25.494Z,1007.48
2019-01-24T06:53:25.480Z,1007.49
2019-01-24T06:54:25.464Z,1007.49
2019-01-24T06:55:25.448Z,1007.49
2019-01-24T06:56:25.437Z,1007.51
2019-01-24T06:57:25.425Z,1007.52
2019-01-24T06:58:25.404Z,1007.55
2019-01-24T06:59:25.388Z,1007.55
2019-01-24T07:00:25.377Z,1007.60
2019-01-24T07:01:25.360Z,1007.58
2019-01-24T07:02:25.344Z,1007.58
2019-01-24T07:03:25.332Z,1007.61
2019-01-24T07:04:25.316Z,1007.62
2019-01-24T07:05:25.302Z,1007.62
2019-01-24T07:06:25.287Z,1007.62
2019-01-24T07:07:25.274Z,1007.59
2019-01-24T07:08:25.262Z,1007.62
2019-01-24T07:09:25.244Z,1007.53
2019-01-24T07:10:25.229Z,1007.56
2019-01-24T07:11:25.214Z,1007.56
2019-01-24T07:12:25.200Z,1007.54
2019-01-24T07:13:25.187Z,1007.54
2019-01-24T07:14:25.172Z,1007.59
2019-01-24T07:15:25.160Z,1007.59
2019-01-24T07:16:25.143Z,1007.56
2019-01-24T07:17:25.129Z,1007.59
2019-01-24T07:18:25.113Z,1007.59
2019-01-24T07:19:25.102Z,1007.58
2019-01-24T07:20:25.084Z,1007.58
2019-01-24T07:21:25.070Z,1007.65
2019-01-24T07:22:25.055Z,1007.61
2019-01-24T07:23:25.044Z,1007.58
2019-01-24T07:24:25.031Z,1007.62
2019-01-24T07:25:25.013Z,1007.65
2019-01-24T07:26:24.998Z,1007.61
2019-01-24T07:27:24.983Z,1007.62
2019-01-24T07:28:24.972Z,1007.62
2019-01-24T07:29:24.960Z,1007.65
2019-01-24T07:30:24.940Z,1007.63
2019-01-24T07:31:24.927Z,1007.67
2019-01-24T07:32:24.911Z,1007.64
2019-01-24T07:33:24.900Z,1007.65
2019-01-24T07:34:24.885Z,1007.67
2019-01-24T07:35:24.875Z,1007.67
2019-01-24T07:36:24.854Z,1007.71
2019-01-24T07:37:24.842Z,1007.69
2019-01-24T07:38:24.826Z,1007.69
2019-01-24T07:39:24.808Z,1007.75
2019-01-24T07:40:24.796Z,1007.68
2019-01-24T07:41:24.783Z,1007.72
2019-01-24T07:42:24.767Z,1007.70
2019-01-24T07:43:24.753Z,1007.77
2019-01-24T07:44:24.743Z,1007.80
2019-01-24T07:45:24.726Z,1007.79
2019-01-24T07:46:24.708Z,1007.84
2019-01-24T07:47:24.696Z,1007.89
2019-01-24T07:48:24.682Z,1007.89
2019-01-24T07:49:24.671Z,1007.87
2019-01-24T07:50:24.651Z,1007.95
2019-01-24T07:51:24.637Z,1007.92
2019-01-24T07:52:24.624Z,1007.93
2019-01-24T07:53:24.607Z,1007.93
2019-01-24T07:54:24.593Z,1007.99
2019-01-24T07:55:24.577Z,1008.01
2019-01-24T07:56:24.565Z,1008.03
2019-01-24T07:57:24.552Z,1008.04
2019-01-24T07:58:24.534Z,1008.05
2019-01-24T07:59:24.520Z,1008.00
2019-01-24T08:00:24.506Z,1008.03
2019-01-24T08:01:24.495Z,1008.08
2019-01-24T08:02:24.477Z,1008.04
2019-01-24T08:03:24.465Z,1008.02
2019-01-24T08:04:24.454Z,1008.03
2019-01-24T08:05:24.436Z,1008.05
2019-01-24T08:06:24.419Z,1008.08
2019-01-24T08:07:24.404Z,1008.06
2019-01-24T08:08:24.388Z,1008.03
2019-01-24T08:09:24.377Z,1008.03
2019-01-24T08:10:24.359Z,1008.03
2019-01-24T08:11:24.350Z,1008.06
2019-01-24T08:12:24.330Z,1008.03
2019-01-24T08:13:24.315Z,1008.06
2019-01-24T08:14:24.303Z,1008.00
2019-01-24T08:15:24.286Z,1008.05
2019-01-24T08:16:24.276Z,1008.04
2019-01-24T08:17:24.256Z,1008.05
2019-01-24T08:18:24.238Z,1008.03
2019-01-24T08:19:24.229Z,1008.05
2019-01-24T08:20:24.215Z,1008.05
2019-01-24T08:21:24.202Z,1008.06
2019-01-24T08:22:24.193Z,1008.05
2019-01-24T08:23:24.172Z,1008.02
2019-01-24T08:24:24.154Z,1008.03
2019-01-24T08:25:24.138Z,1008.09
2019-01-24T08:26:24.129Z,1008.05
2019-01-24T08:27:24.112Z,1008.11
2019-01-24T08:28:24.095Z,1008.08
2019-01-24T08:29:24.082Z,1008.08
2019-01-24T08:30:24.069Z,1008.05
2019-01-24T08:31:24.051Z,1008.08
2019-01-24T08:32:24.037Z,1008.09
2019-01-24T08:33:24.027Z,1008.10
2019-01-24T08:34:24.008Z,1008.11
2019-01-24T08:35:23.993Z,1008.12
2019-01-24T08:36:23.979Z,1008.08
2019-01-24T08:37:23.963Z,1008.08
2019-01-24T08:38:23.953Z,1008.05
2019-01-24T08:39:23.936Z,1008.09
2019-01-24T08:40:23.922Z,1008.09
2019-01-24T08:41:23.908Z,1008.12
2019-01-24T08:42:23.890Z,1008.09
2019-01-24T08:43:23.875Z,1008.12
2019-01-24T08:44:23.860Z,1008.17
2019-01-24T08:45:23.846Z,1008.14
2019-01-24T08:46:23.830Z,1008.21
2019-01-24T08:47:23.861Z,1008.14
2019-01-24T08:48:23.804Z,1008.18
2019-01-24T08:49:23.789Z,1008.22
2019-01-24T08:50:23.773Z,1008.18
2019-01-24T08:51:23.757Z,1008.13
2019-01-24T08:52:23.744Z,1008.14
2019-01-24T08:53:23.729Z,1008.19
2019-01-24T08:54:23.714Z,1008.21
2019-01-24T08:55:23.695Z,1008.19
2019-01-24T08:56:23.685Z,1008.23
2019-01-24T08:57:23.670Z,1008.26
2019-01-24T08:58:23.655Z,1008.25
2019-01-24T08:59:29.298Z,1008.26
2019-01-24T09:00:23.630Z,1008.27
2019-01-24T09:01:23.611Z,1008.30
2019-01-24T09:02:23.594Z,1008.29
2019-01-24T09:03:23.580Z,1008.25
2019-01-24T09:04:23.569Z,1008.33
2019-01-24T09:05:23.552Z,1008.28
2019-01-24T09:06:23.536Z,1008.30
2019-01-24T09:07:23.524Z,1008.30
2019-01-24T09:08:23.510Z,1008.27
2019-01-24T09:09:23.498Z,1008.26
2019-01-24T09:10:23.482Z,1008.28
2019-01-24T09:11:23.464Z,1008.21
2019-01-24T09:12:30.087Z,1008.23
2019-01-24T09:13:23.436Z,1008.23
2019-01-24T09:14:23.423Z,1008.23
2019-01-24T09:15:23.406Z,1008.21
2019-01-24T09:16:23.391Z,1008.22
2019-01-24T09:17:23.380Z,1008.23
2019-01-24T09:18:23.357Z,1008.25
2019-01-24T09:19:23.348Z,1008.26
2019-01-24T09:20:23.336Z,1008.25
2019-01-24T09:21:23.326Z,1008.26
2019-01-24T09:22:23.308Z,1008.25
2019-01-24T09:23:23.290Z,1008.29
2019-01-24T09:24:23.277Z,1008.28
2019-01-24T09:25:23.272Z,1008.32
2019-01-24T09:26:23.250Z,1008.30
2019-01-24T09:27:23.234Z,1008.35
2019-01-24T09:28:23.218Z,1008.27
2019-01-24T09:29:23.207Z,1008.33
2019-01-24T09:30:23.189Z,1008.28
2019-01-24T09:31:23.183Z,1008.29
2019-01-24T09:32:23.165Z,1008.33
2019-01-24T09:33:23.146Z,1008.27
2019-01-24T09:34:23.131Z,1008.29
2019-01-24T09:35:23.119Z,1008.28
2019-01-24T09:36:29.093Z,1008.27
2019-01-24T09:37:23.086Z,1008.30
2019-01-24T09:38:23.072Z,1008.28
2019-01-24T09:39:23.060Z,1008.34
2019-01-24T09:40:23.045Z,1008.34
2019-01-24T09:41:23.026Z,1008.33
2019-01-24T09:42:23.013Z,1008.35
2019-01-24T09:43:23.000Z,1008.37
2019-01-24T09:44:22.984Z,1008.39
2019-01-24T09:45:22.970Z,1008.42
2019-01-24T09:46:22.965Z,1008.41
2019-01-24T09:47:22.939Z,1008.40
2019-01-24T09:48:22.926Z,1008.35
2019-01-24T09:49:22.914Z,1008.36
2019-01-24T09:50:22.892Z,1008.35
2019-01-24T09:51:22.880Z,1008.38
2019-01-24T09:52:22.868Z,1008.36
2019-01-24T09:53:22.853Z,1008.39
2019-01-24T09:54:22.839Z,1008.32
2019-01-24T09:55:22.880Z,1008.36
2019-01-24T09:56:22.808Z,1008.37
2019-01-24T09:57:22.795Z,1008.40
2019-01-24T09:58:22.785Z,1008.37
2019-01-24T09:59:22.765Z,1008.43
2019-01-24T10:00:22.749Z,1008.41
2019-01-24T10:01:22.736Z,1008.44
2019-01-24T10:02:22.720Z,1008.45
2019-01-24T10:03:22.706Z,1008.47
2019-01-24T10:04:22.691Z,1008.43
2019-01-24T10:05:22.678Z,1008.43
2019-01-24T10:06:22.662Z,1008.41
2019-01-24T10:07:22.647Z,1008.43
2019-01-24T10:08:22.634Z,1008.42
2019-01-24T10:09:22.619Z,1008.42
2019-01-24T10:10:22.606Z,1008.39
2019-01-24T10:11:23.606Z,1008.36
2019-01-24T10:12:22.575Z,1008.34
2019-01-24T10:13:22.560Z,1008.33
2019-01-24T10:14:22.545Z,1008.37
2019-01-24T10:15:22.532Z,1008.36
2019-01-24T10:16:22.517Z,1008.40
2019-01-24T10:17:22.503Z,1008.42
2019-01-24T10:18:22.486Z,1008.37
2019-01-24T10:19:22.474Z,1008.41
2019-01-24T10:20:22.499Z,1008.43
2019-01-24T10:21:22.445Z,1008.42
2019-01-24T10:22:22.428Z,1008.42
2019-01-24T10:23:22.415Z,1008.46
2019-01-24T10:24:22.400Z,1008.49
2019-01-24T10:25:22.387Z,1008.46
2019-01-24T10:26:22.371Z,1008.56
2019-01-24T10:27:22.357Z,1008.49
2019-01-24T10:28:22.344Z,1008.53
2019-01-24T10:29:22.326Z,1008.51
2019-01-24T10:30:22.322Z,1008.57
2019-01-24T10:31:22.311Z,1008.54
2019-01-24T10:32:22.284Z,1008.57
2019-01-24T10:33:22.268Z,1008.54
2019-01-24T10:34:22.255Z,1008.55
2019-01-24T10:35:22.256Z,1008.58
2019-01-24T10:36:22.232Z,1008.59
2019-01-24T10:37:22.214Z,1008.57
2019-01-24T10:38:22.195Z,1008.60
2019-01-24T10:39:22.184Z,1008.62
2019-01-24T10:40:22.172Z,1008.55
2019-01-24T10:41:22.157Z,1008.58
2019-01-24T10:42:22.135Z,1008.57
2019-01-24T10:43:22.126Z,1008.56
2019-01-24T10:44:22.109Z,1008.55
2019-01-24T10:45:22.095Z,1008.58
2019-01-24T10:46:22.080Z,1008.54
2019-01-24T10:47:22.066Z,1008.52
2019-01-24T10:48:22.051Z,1008.51
2019-01-24T10:49:22.038Z,1008.52
2019-01-24T10:50:22.016Z,1008.55
2019-01-24T10:51:22.010Z,1008.55
2019-01-24T10:52:21.992Z,1008.59
2019-01-24T10:53:21.983Z,1008.55
2019-01-24T10:54:21.965Z,1008.53
2019-01-24T10:55:21.955Z,1008.56
2019-01-24T10:56:21.942Z,1008.52
2019-01-24T10:57:21.920Z,1008.51
2019-01-24T10:58:21.909Z,1008.51
2019-01-24T10:59:21.895Z,1008.48
2019-01-24T11:00:21.881Z,1008.50
2019-01-24T11:01:21.865Z,1008.56
2019-01-24T11:02:21.851Z,1008.51
2019-01-24T11:03:21.840Z,1008.47
2019-01-24T11:04:21.824Z,1008.50
2019-01-24T11:05:21.807Z,1008.52
2019-01-24T11:06:21.795Z,1008.49
2019-01-24T11:07:21.776Z,1008.48
2019-01-24T11:08:21.765Z,1008.48
2019-01-24T11:09:21.747Z,1008.52
2019-01-24T11:10:21.735Z,1008.57
2019-01-24T11:11:21.720Z,1008.55
2019-01-24T11:12:21.706Z,1008.53
2019-01-24T11:13:21.692Z,1008.55
2019-01-24T11:14:21.675Z,1008.53
2019-01-24T11:15:21.663Z,1008.55
2019-01-24T11:16:21.647Z,1008.56
2019-01-24T11:17:21.636Z,1008.55
2019-01-24T11:18:21.622Z,1008.55
2019-01-24T11:19:21.605Z,1008.55
2019-01-24T11:20:21.591Z,1008.53
2019-01-24T11:21:21.577Z,1008.56
2019-01-24T11:22:21.560Z,1008.53
2019-01-24T11:23:21.550Z,1008.60
2019-01-24T11:24:21.532Z,1008.60
2019-01-24T11:25:21.519Z,1008.60
2019-01-24T11:26:21.505Z,1008.57
2019-01-24T11:27:21.485Z,1008.56
2019-01-24T11:28:21.477Z,1008.53
2019-01-24T11:29:21.462Z,1008.53
2019-01-24T11:30:21.444Z,1008.52
2019-01-24T11:31:21.432Z,1008.47
2019-01-24T11:32:21.417Z,1008.54
2019-01-24T11:33:21.458Z,1008.54
2019-01-24T11:34:21.388Z,1008.54
2019-01-24T11:35:21.374Z,1008.50
2019-01-24T11:36:21.357Z,1008.55
2019-01-24T11:37:21.344Z,1008.52
2019-01-24T11:38:21.326Z,1008.56
2019-01-24T11:39:21.323Z,1008.60
2019-01-24T11:40:21.301Z,1008.56
2019-01-24T11:41:21.286Z,1008.56
2019-01-24T11:42:21.271Z,1008.62
2019-01-24T11:43:21.259Z,1008.54
2019-01-24T11:44:21.248Z,1008.62
2019-01-24T11:45:21.227Z,1008.60
2019-01-24T11:46:21.210Z,1008.65
2019-01-24T11:47:21.200Z,1008.64
2019-01-24T11:48:21.174Z,1008.60
2019-01-24T11:49:21.178Z,1008.62
2019-01-24T11:50:21.187Z,1008.66
2019-01-24T11:51:21.147Z,1008.66
2019-01-24T11:52:21.125Z,1008.56
2019-01-24T11:53:21.110Z,1008.60
2019-01-24T11:54:21.099Z,1008.58
2019-01-24T11:55:21.096Z,1008.54
2019-01-24T11:56:21.077Z,1008.55
2019-01-24T11:57:21.053Z,1008.56
2019-01-24T11:58:21.043Z,1008.60
2019-01-24T11:59:21.025Z,1008.59
2019-01-24T12:00:21.013Z,1008.61
2019-01-24T12:01:20.995Z,1008.65
2019-01-24T12:02:20.980Z,1008.66
2019-01-24T12:03:20.970Z,1008.64
2019-01-24T12:04:20.949Z,1008.61
2019-01-24T12:05:20.940Z,1008.59